sensor_id;sensor_type;location;lat;lon;timestamp;P1;durP1;ratioP1;P2;durP2;ratioP2
71975;SDS011;60680;52.182;5.398;2022-10-16T00:01:38;2.47;;;0.75;;
71975;SDS011;60680;52.182;5.398;2022-10-16T00:04:04;1.67;;;0.50;;
71975;SDS011;60680;52.182;5.398;2022-10-16T00:06:31;3.35;;;0.60;;
71975;SDS011;60680;52.182;5.398;2022-10-16T00:08:58;3.03;;;0.80;;
71975;SDS011;60680;52.182;5.398;2022-10-16T00:11:28;2.92;;;0.73;;
71975;SDS011;60680;52.182;5.398;2022-10-16T00:14:00;3.28;;;0.90;;
71975;SDS011;60680;52.182;5.398;2022-10-16T00:16:28;2.97;;;0.75;;
71975;SDS011;60680;52.182;5.398;2022-10-16T00:18:55;3.60;;;0.80;;
71975;SDS011;60680;52.182;5.398;2022-10-16T00:21:23;1.13;;;0.55;;
71975;SDS011;60680;52.182;5.398;2022-10-16T00:23:56;4.75;;;0.57;;
71975;SDS011;60680;52.182;5.398;2022-10-16T00:26:27;3.90;;;0.70;;
71975;SDS011;60680;52.182;5.398;2022-10-16T00:28:55;2.28;;;0.68;;
71975;SDS011;60680;52.182;5.398;2022-10-16T00:31:22;5.73;;;0.77;;
71975;SDS011;60680;52.182;5.398;2022-10-16T00:33:49;3.95;;;0.85;;
71975;SDS011;60680;52.182;5.398;2022-10-16T00:36:17;3.97;;;1.02;;
71975;SDS011;60680;52.182;5.398;2022-10-16T00:38:45;4.90;;;1.10;;
71975;SDS011;60680;52.182;5.398;2022-10-16T00:41:14;3.53;;;0.60;;
71975;SDS011;60680;52.182;5.398;2022-10-16T00:43:43;2.78;;;0.90;;
71975;SDS011;60680;52.182;5.398;2022-10-16T00:46:29;3.33;;;0.75;;
71975;SDS011;60680;52.182;5.398;2022-10-16T00:49:11;4.35;;;0.80;;
71975;SDS011;60680;52.182;5.398;2022-10-16T00:51:41;2.60;;;0.90;;
71975;SDS011;60680;52.182;5.398;2022-10-16T00:54:28;3.20;;;0.90;;
71975;SDS011;60680;52.182;5.398;2022-10-16T00:56:57;3.30;;;1.00;;
71975;SDS011;60680;52.182;5.398;2022-10-16T00:59:29;3.25;;;0.90;;
71975;SDS011;60680;52.182;5.398;2022-10-16T01:01:58;3.05;;;0.90;;
71975;SDS011;60680;52.182;5.398;2022-10-16T01:04:25;3.88;;;1.00;;
71975;SDS011;60680;52.182;5.398;2022-10-16T01:12:41;4.40;;;0.80;;
71975;SDS011;60680;52.182;5.398;2022-10-16T01:20:54;3.17;;;1.10;;
71975;SDS011;60680;52.182;5.398;2022-10-16T01:23:27;3.03;;;0.97;;
71975;SDS011;60680;52.182;5.398;2022-10-16T01:29:18;3.65;;;0.88;;
71975;SDS011;60680;52.182;5.398;2022-10-16T01:31:55;3.13;;;1.00;;
71975;SDS011;60680;52.182;5.398;2022-10-16T01:34:28;1.98;;;0.88;;
71975;SDS011;60680;52.182;5.398;2022-10-16T01:37:03;3.07;;;1.20;;
71975;SDS011;60680;52.182;5.398;2022-10-16T01:39:34;4.15;;;1.20;;
71975;SDS011;60680;52.182;5.398;2022-10-16T01:42:06;4.45;;;1.08;;
71975;SDS011;60680;52.182;5.398;2022-10-16T01:44:37;2.13;;;0.90;;
71975;SDS011;60680;52.182;5.398;2022-10-16T01:47:05;3.42;;;1.00;;
71975;SDS011;60680;52.182;5.398;2022-10-16T01:49:36;3.92;;;1.27;;
71975;SDS011;60680;52.182;5.398;2022-10-16T01:52:08;5.68;;;1.10;;
71975;SDS011;60680;52.182;5.398;2022-10-16T01:54:37;3.13;;;0.90;;
71975;SDS011;60680;52.182;5.398;2022-10-16T01:57:08;2.13;;;1.00;;
71975;SDS011;60680;52.182;5.398;2022-10-16T01:59:38;4.47;;;1.40;;
71975;SDS011;60680;52.182;5.398;2022-10-16T02:02:09;4.33;;;1.10;;
71975;SDS011;60680;52.182;5.398;2022-10-16T02:04:38;2.33;;;1.00;;
71975;SDS011;60680;52.182;5.398;2022-10-16T02:07:08;2.88;;;1.30;;
71975;SDS011;60680;52.182;5.398;2022-10-16T02:09:36;2.35;;;1.02;;
71975;SDS011;60680;52.182;5.398;2022-10-16T02:12:08;3.28;;;1.08;;
71975;SDS011;60680;52.182;5.398;2022-10-16T02:14:40;3.58;;;1.60;;
71975;SDS011;60680;52.182;5.398;2022-10-16T02:17:14;3.03;;;1.40;;
71975;SDS011;60680;52.182;5.398;2022-10-16T02:19:42;4.65;;;1.40;;
71975;SDS011;60680;52.182;5.398;2022-10-16T02:22:15;2.80;;;1.38;;
71975;SDS011;60680;52.182;5.398;2022-10-16T02:27:41;3.40;;;1.10;;
71975;SDS011;60680;52.182;5.398;2022-10-16T02:30:14;2.63;;;1.23;;
71975;SDS011;60680;52.182;5.398;2022-10-16T02:32:44;2.95;;;1.15;;
71975;SDS011;60680;52.182;5.398;2022-10-16T02:35:12;4.88;;;1.30;;
71975;SDS011;60680;52.182;5.398;2022-10-16T02:37:40;2.72;;;1.13;;
71975;SDS011;60680;52.182;5.398;2022-10-16T02:40:08;3.72;;;1.35;;
71975;SDS011;60680;52.182;5.398;2022-10-16T02:42:36;3.53;;;1.30;;
71975;SDS011;60680;52.182;5.398;2022-10-16T02:45:06;5.25;;;1.50;;
71975;SDS011;60680;52.182;5.398;2022-10-16T02:47:33;2.67;;;0.95;;
71975;SDS011;60680;52.182;5.398;2022-10-16T02:50:00;5.90;;;1.00;;
71975;SDS011;60680;52.182;5.398;2022-10-16T02:52:27;2.80;;;1.17;;
71975;SDS011;60680;52.182;5.398;2022-10-16T02:54:54;1.92;;;1.00;;
71975;SDS011;60680;52.182;5.398;2022-10-16T02:57:20;3.03;;;0.88;;
71975;SDS011;60680;52.182;5.398;2022-10-16T02:59:46;3.35;;;0.88;;
71975;SDS011;60680;52.182;5.398;2022-10-16T03:02:13;1.98;;;0.93;;
71975;SDS011;60680;52.182;5.398;2022-10-16T03:04:39;4.03;;;1.30;;
71975;SDS011;60680;52.182;5.398;2022-10-16T03:07:06;2.92;;;0.98;;
71975;SDS011;60680;52.182;5.398;2022-10-16T03:09:33;3.47;;;1.13;;
71975;SDS011;60680;52.182;5.398;2022-10-16T03:12:00;2.28;;;1.10;;
71975;SDS011;60680;52.182;5.398;2022-10-16T03:14:26;2.03;;;0.82;;
71975;SDS011;60680;52.182;5.398;2022-10-16T03:16:53;3.45;;;0.77;;
71975;SDS011;60680;52.182;5.398;2022-10-16T03:19:19;3.00;;;1.00;;
71975;SDS011;60680;52.182;5.398;2022-10-16T03:21:45;3.45;;;1.10;;
71975;SDS011;60680;52.182;5.398;2022-10-16T03:24:12;3.78;;;1.10;;
71975;SDS011;60680;52.182;5.398;2022-10-16T03:26:38;2.47;;;1.00;;
71975;SDS011;60680;52.182;5.398;2022-10-16T03:29:05;3.50;;;0.85;;
71975;SDS011;60680;52.182;5.398;2022-10-16T03:31:32;1.83;;;0.90;;
71975;SDS011;60680;52.182;5.398;2022-10-16T03:33:58;2.22;;;0.90;;
71975;SDS011;60680;52.182;5.398;2022-10-16T03:36:25;3.15;;;1.08;;
71975;SDS011;60680;52.182;5.398;2022-10-16T03:38:51;2.38;;;0.75;;
71975;SDS011;60680;52.182;5.398;2022-10-16T03:41:18;6.03;;;1.57;;
71975;SDS011;60680;52.182;5.398;2022-10-16T03:43:44;3.10;;;1.08;;
71975;SDS011;60680;52.182;5.398;2022-10-16T03:46:10;2.47;;;0.80;;
71975;SDS011;60680;52.182;5.398;2022-10-16T03:48:37;2.67;;;0.70;;
71975;SDS011;60680;52.182;5.398;2022-10-16T03:51:03;1.73;;;0.70;;
71975;SDS011;60680;52.182;5.398;2022-10-16T03:53:30;2.77;;;0.70;;
71975;SDS011;60680;52.182;5.398;2022-10-16T03:55:56;1.75;;;0.75;;
71975;SDS011;60680;52.182;5.398;2022-10-16T03:58:22;1.85;;;0.80;;
71975;SDS011;60680;52.182;5.398;2022-10-16T04:00:49;3.00;;;0.70;;
71975;SDS011;60680;52.182;5.398;2022-10-16T04:03:16;3.00;;;0.70;;
71975;SDS011;60680;52.182;5.398;2022-10-16T04:05:43;2.90;;;0.70;;
71975;SDS011;60680;52.182;5.398;2022-10-16T04:08:09;3.20;;;0.80;;
71975;SDS011;60680;52.182;5.398;2022-10-16T04:10:36;1.50;;;0.60;;
71975;SDS011;60680;52.182;5.398;2022-10-16T04:13:02;1.70;;;0.55;;
71975;SDS011;60680;52.182;5.398;2022-10-16T04:15:29;2.83;;;0.93;;
71975;SDS011;60680;52.182;5.398;2022-10-16T04:17:55;1.27;;;0.70;;
71975;SDS011;60680;52.182;5.398;2022-10-16T04:20:22;1.45;;;0.52;;
71975;SDS011;60680;52.182;5.398;2022-10-16T04:22:48;1.50;;;0.70;;
71975;SDS011;60680;52.182;5.398;2022-10-16T04:25:15;1.42;;;0.57;;
71975;SDS011;60680;52.182;5.398;2022-10-16T04:27:41;1.40;;;0.73;;
71975;SDS011;60680;52.182;5.398;2022-10-16T04:30:11;4.10;;;0.85;;
71975;SDS011;60680;52.182;5.398;2022-10-16T04:32:38;2.60;;;0.52;;
71975;SDS011;60680;52.182;5.398;2022-10-16T04:35:04;4.55;;;0.70;;
71975;SDS011;60680;52.182;5.398;2022-10-16T04:37:31;1.52;;;0.82;;
71975;SDS011;60680;52.182;5.398;2022-10-16T04:39:57;1.92;;;0.60;;
71975;SDS011;60680;52.182;5.398;2022-10-16T04:42:24;2.07;;;0.60;;
71975;SDS011;60680;52.182;5.398;2022-10-16T04:44:51;0.88;;;0.35;;
71975;SDS011;60680;52.182;5.398;2022-10-16T04:47:17;2.13;;;0.90;;
71975;SDS011;60680;52.182;5.398;2022-10-16T04:49:43;1.65;;;0.70;;
71975;SDS011;60680;52.182;5.398;2022-10-16T04:52:10;3.13;;;0.70;;
71975;SDS011;60680;52.182;5.398;2022-10-16T04:54:36;1.13;;;0.43;;
71975;SDS011;60680;52.182;5.398;2022-10-16T04:57:03;1.38;;;0.50;;
71975;SDS011;60680;52.182;5.398;2022-10-16T04:59:30;2.28;;;0.50;;
71975;SDS011;60680;52.182;5.398;2022-10-16T05:01:57;1.40;;;0.63;;
71975;SDS011;60680;52.182;5.398;2022-10-16T05:04:23;1.80;;;0.70;;
71975;SDS011;60680;52.182;5.398;2022-10-16T05:06:50;2.43;;;0.60;;
71975;SDS011;60680;52.182;5.398;2022-10-16T05:09:16;1.48;;;0.60;;
71975;SDS011;60680;52.182;5.398;2022-10-16T05:11:42;2.97;;;0.60;;
71975;SDS011;60680;52.182;5.398;2022-10-16T05:14:09;1.70;;;0.45;;
71975;SDS011;60680;52.182;5.398;2022-10-16T05:16:36;1.25;;;0.45;;
71975;SDS011;60680;52.182;5.398;2022-10-16T05:19:02;1.83;;;0.60;;
71975;SDS011;60680;52.182;5.398;2022-10-16T05:21:49;3.75;;;0.63;;
71975;SDS011;60680;52.182;5.398;2022-10-16T05:24:15;1.55;;;0.60;;
71975;SDS011;60680;52.182;5.398;2022-10-16T05:26:42;2.97;;;0.63;;
71975;SDS011;60680;52.182;5.398;2022-10-16T05:29:08;1.92;;;0.85;;
71975;SDS011;60680;52.182;5.398;2022-10-16T05:31:35;6.30;;;1.00;;
71975;SDS011;60680;52.182;5.398;2022-10-16T05:34:01;4.15;;;0.60;;
71975;SDS011;60680;52.182;5.398;2022-10-16T05:36:28;3.95;;;0.70;;
71975;SDS011;60680;52.182;5.398;2022-10-16T05:38:54;4.22;;;0.80;;
71975;SDS011;60680;52.182;5.398;2022-10-16T05:41:21;1.45;;;0.77;;
71975;SDS011;60680;52.182;5.398;2022-10-16T05:43:49;2.60;;;0.70;;
71975;SDS011;60680;52.182;5.398;2022-10-16T05:46:16;3.45;;;0.80;;
71975;SDS011;60680;52.182;5.398;2022-10-16T05:48:42;3.70;;;0.90;;
71975;SDS011;60680;52.182;5.398;2022-10-16T05:51:10;2.95;;;0.75;;
71975;SDS011;60680;52.182;5.398;2022-10-16T05:53:38;2.47;;;0.90;;
71975;SDS011;60680;52.182;5.398;2022-10-16T05:56:06;1.65;;;0.70;;
71975;SDS011;60680;52.182;5.398;2022-10-16T05:58:35;2.30;;;0.98;;
71975;SDS011;60680;52.182;5.398;2022-10-16T06:01:04;2.33;;;0.75;;
71975;SDS011;60680;52.182;5.398;2022-10-16T06:03:33;2.78;;;0.70;;
71975;SDS011;60680;52.182;5.398;2022-10-16T06:06:06;1.85;;;1.10;;
71975;SDS011;60680;52.182;5.398;2022-10-16T06:08:38;3.10;;;0.93;;
71975;SDS011;60680;52.182;5.398;2022-10-16T06:11:06;2.75;;;0.90;;
71975;SDS011;60680;52.182;5.398;2022-10-16T06:13:34;4.22;;;0.70;;
71975;SDS011;60680;52.182;5.398;2022-10-16T06:16:02;1.85;;;0.90;;
71975;SDS011;60680;52.182;5.398;2022-10-16T06:18:29;1.92;;;0.77;;
71975;SDS011;60680;52.182;5.398;2022-10-16T06:20:56;1.97;;;0.90;;
71975;SDS011;60680;52.182;5.398;2022-10-16T06:23:24;4.68;;;1.00;;
71975;SDS011;60680;52.182;5.398;2022-10-16T06:25:51;5.30;;;1.00;;
71975;SDS011;60680;52.182;5.398;2022-10-16T06:28:17;4.72;;;0.98;;
71975;SDS011;60680;52.182;5.398;2022-10-16T06:30:44;1.95;;;0.93;;
71975;SDS011;60680;52.182;5.398;2022-10-16T06:33:12;2.47;;;0.90;;
71975;SDS011;60680;52.182;5.398;2022-10-16T06:35:38;4.28;;;0.88;;
71975;SDS011;60680;52.182;5.398;2022-10-16T06:38:04;4.65;;;1.00;;
71975;SDS011;60680;52.182;5.398;2022-10-16T06:40:31;2.47;;;0.80;;
71975;SDS011;60680;52.182;5.398;2022-10-16T06:42:57;3.22;;;0.80;;
71975;SDS011;60680;52.182;5.398;2022-10-16T06:45:24;2.83;;;1.00;;
71975;SDS011;60680;52.182;5.398;2022-10-16T06:47:50;2.05;;;0.88;;
71975;SDS011;60680;52.182;5.398;2022-10-16T06:50:17;4.18;;;1.10;;
71975;SDS011;60680;52.182;5.398;2022-10-16T06:52:43;3.33;;;0.90;;
71975;SDS011;60680;52.182;5.398;2022-10-16T06:55:09;3.50;;;1.00;;
71975;SDS011;60680;52.182;5.398;2022-10-16T06:57:36;1.50;;;0.70;;
71975;SDS011;60680;52.182;5.398;2022-10-16T07:00:02;2.63;;;1.08;;
71975;SDS011;60680;52.182;5.398;2022-10-16T07:02:29;2.45;;;0.82;;
71975;SDS011;60680;52.182;5.398;2022-10-16T07:04:55;4.30;;;0.98;;
71975;SDS011;60680;52.182;5.398;2022-10-16T07:07:22;3.17;;;0.93;;
71975;SDS011;60680;52.182;5.398;2022-10-16T07:09:50;2.10;;;1.10;;
71975;SDS011;60680;52.182;5.398;2022-10-16T07:12:17;3.25;;;0.80;;
71975;SDS011;60680;52.182;5.398;2022-10-16T07:14:43;2.58;;;0.70;;
71975;SDS011;60680;52.182;5.398;2022-10-16T07:17:10;3.70;;;0.85;;
71975;SDS011;60680;52.182;5.398;2022-10-16T07:19:36;1.75;;;0.63;;
71975;SDS011;60680;52.182;5.398;2022-10-16T07:22:03;3.47;;;1.00;;
71975;SDS011;60680;52.182;5.398;2022-10-16T07:24:29;2.72;;;1.00;;
71975;SDS011;60680;52.182;5.398;2022-10-16T07:26:55;5.10;;;0.70;;
71975;SDS011;60680;52.182;5.398;2022-10-16T07:29:22;3.70;;;0.60;;
71975;SDS011;60680;52.182;5.398;2022-10-16T07:31:49;1.88;;;0.70;;
71975;SDS011;60680;52.182;5.398;2022-10-16T07:34:16;2.73;;;0.60;;
71975;SDS011;60680;52.182;5.398;2022-10-16T07:36:43;4.25;;;0.90;;
71975;SDS011;60680;52.182;5.398;2022-10-16T07:39:10;2.15;;;0.65;;
71975;SDS011;60680;52.182;5.398;2022-10-16T07:41:36;1.98;;;0.50;;
71975;SDS011;60680;52.182;5.398;2022-10-16T07:44:03;2.17;;;0.90;;
71975;SDS011;60680;52.182;5.398;2022-10-16T07:46:30;1.75;;;0.52;;
71975;SDS011;60680;52.182;5.398;2022-10-16T07:48:56;3.58;;;0.50;;
71975;SDS011;60680;52.182;5.398;2022-10-16T07:51:24;3.00;;;0.60;;
71975;SDS011;60680;52.182;5.398;2022-10-16T07:53:51;3.65;;;0.60;;
71975;SDS011;60680;52.182;5.398;2022-10-16T07:56:19;3.10;;;0.77;;
71975;SDS011;60680;52.182;5.398;2022-10-16T07:58:46;4.38;;;0.80;;
71975;SDS011;60680;52.182;5.398;2022-10-16T08:01:14;3.00;;;0.55;;
71975;SDS011;60680;52.182;5.398;2022-10-16T08:03:44;3.30;;;0.70;;
71975;SDS011;60680;52.182;5.398;2022-10-16T08:06:12;2.97;;;0.90;;
71975;SDS011;60680;52.182;5.398;2022-10-16T08:08:39;1.80;;;0.70;;
71975;SDS011;60680;52.182;5.398;2022-10-16T08:11:05;1.88;;;0.82;;
71975;SDS011;60680;52.182;5.398;2022-10-16T08:13:32;3.92;;;1.02;;
71975;SDS011;60680;52.182;5.398;2022-10-16T08:15:58;2.97;;;1.08;;
71975;SDS011;60680;52.182;5.398;2022-10-16T08:18:25;3.50;;;0.80;;
71975;SDS011;60680;52.182;5.398;2022-10-16T08:20:55;2.13;;;0.82;;
71975;SDS011;60680;52.182;5.398;2022-10-16T08:23:23;3.30;;;1.05;;
71975;SDS011;60680;52.182;5.398;2022-10-16T08:25:53;4.13;;;1.00;;
71975;SDS011;60680;52.182;5.398;2022-10-16T08:28:20;1.95;;;1.00;;
71975;SDS011;60680;52.182;5.398;2022-10-16T08:30:47;4.43;;;0.93;;
71975;SDS011;60680;52.182;5.398;2022-10-16T08:33:13;2.30;;;0.95;;
71975;SDS011;60680;52.182;5.398;2022-10-16T08:35:39;2.90;;;0.90;;
71975;SDS011;60680;52.182;5.398;2022-10-16T08:38:06;3.37;;;1.37;;
71975;SDS011;60680;52.182;5.398;2022-10-16T08:40:33;4.13;;;0.85;;
71975;SDS011;60680;52.182;5.398;2022-10-16T08:46:06;5.35;;;1.10;;
71975;SDS011;60680;52.182;5.398;2022-10-16T08:48:59;3.50;;;0.70;;
71975;SDS011;60680;52.182;5.398;2022-10-16T08:51:29;3.53;;;0.83;;
71975;SDS011;60680;52.182;5.398;2022-10-16T08:53:59;2.65;;;0.57;;
71975;SDS011;60680;52.182;5.398;2022-10-16T08:56:32;4.75;;;0.93;;
71975;SDS011;60680;52.182;5.398;2022-10-16T08:58:59;3.78;;;1.00;;
71975;SDS011;60680;52.182;5.398;2022-10-16T09:01:38;3.15;;;0.70;;
71975;SDS011;60680;52.182;5.398;2022-10-16T09:12:21;4.35;;;0.60;;
71975;SDS011;60680;52.182;5.398;2022-10-16T09:20:30;6.35;;;0.60;;
71975;SDS011;60680;52.182;5.398;2022-10-16T09:23:12;2.75;;;0.68;;
71975;SDS011;60680;52.182;5.398;2022-10-16T09:25:43;2.25;;;0.30;;
71975;SDS011;60680;52.182;5.398;2022-10-16T09:28:14;6.20;;;1.05;;
71975;SDS011;60680;52.182;5.398;2022-10-16T09:30:42;3.43;;;0.60;;
71975;SDS011;60680;52.182;5.398;2022-10-16T09:33:10;4.53;;;0.60;;
71975;SDS011;60680;52.182;5.398;2022-10-16T09:35:39;3.92;;;0.52;;
71975;SDS011;60680;52.182;5.398;2022-10-16T09:38:08;7.35;;;1.00;;
71975;SDS011;60680;52.182;5.398;2022-10-16T09:40:38;7.75;;;0.52;;
71975;SDS011;60680;52.182;5.398;2022-10-16T09:45:37;5.65;;;0.98;;
71975;SDS011;60680;52.182;5.398;2022-10-16T09:48:12;6.95;;;1.30;;
71975;SDS011;60680;52.182;5.398;2022-10-16T09:50:39;5.30;;;1.00;;
71975;SDS011;60680;52.182;5.398;2022-10-16T09:53:12;5.63;;;0.88;;
71975;SDS011;60680;52.182;5.398;2022-10-16T09:55:52;6.27;;;0.60;;
71975;SDS011;60680;52.182;5.398;2022-10-16T09:58:22;7.90;;;0.82;;
71975;SDS011;60680;52.182;5.398;2022-10-16T10:00:51;4.32;;;0.70;;
71975;SDS011;60680;52.182;5.398;2022-10-16T10:03:36;4.25;;;0.85;;
71975;SDS011;60680;52.182;5.398;2022-10-16T10:06:07;6.38;;;1.23;;
71975;SDS011;60680;52.182;5.398;2022-10-16T10:09:00;5.23;;;0.90;;
71975;SDS011;60680;52.182;5.398;2022-10-16T10:11:40;4.07;;;0.80;;
71975;SDS011;60680;52.182;5.398;2022-10-16T10:14:26;4.15;;;0.63;;
71975;SDS011;60680;52.182;5.398;2022-10-16T10:19:39;4.13;;;0.73;;
71975;SDS011;60680;52.182;5.398;2022-10-16T10:25:00;7.95;;;0.65;;
71975;SDS011;60680;52.182;5.398;2022-10-16T10:38:59;4.00;;;0.70;;
71975;SDS011;60680;52.182;5.398;2022-10-16T10:44:16;5.65;;;0.75;;
71975;SDS011;60680;52.182;5.398;2022-10-16T10:55:10;7.55;;;0.90;;
71975;SDS011;60680;52.182;5.398;2022-10-16T11:00:22;11.32;;;1.10;;
71975;SDS011;60680;52.182;5.398;2022-10-16T11:06:00;5.47;;;0.63;;
71975;SDS011;60680;52.182;5.398;2022-10-16T11:11:23;4.88;;;0.77;;
71975;SDS011;60680;52.182;5.398;2022-10-16T11:22:06;4.85;;;1.20;;
71975;SDS011;60680;52.182;5.398;2022-10-16T11:24:42;6.18;;;0.80;;
71975;SDS011;60680;52.182;5.398;2022-10-16T11:27:44;4.68;;;0.80;;
71975;SDS011;60680;52.182;5.398;2022-10-16T11:30:20;4.60;;;0.60;;
71975;SDS011;60680;52.182;5.398;2022-10-16T11:35:44;4.40;;;0.60;;
71975;SDS011;60680;52.182;5.398;2022-10-16T11:38:22;3.85;;;1.27;;
71975;SDS011;60680;52.182;5.398;2022-10-16T11:41:01;6.47;;;0.80;;
71975;SDS011;60680;52.182;5.398;2022-10-16T11:43:35;9.77;;;1.17;;
71975;SDS011;60680;52.182;5.398;2022-10-16T11:46:17;6.30;;;0.98;;
71975;SDS011;60680;52.182;5.398;2022-10-16T11:48:49;4.78;;;0.60;;
71975;SDS011;60680;52.182;5.398;2022-10-16T11:51:26;6.20;;;0.75;;
71975;SDS011;60680;52.182;5.398;2022-10-16T11:53:58;4.78;;;0.80;;
71975;SDS011;60680;52.182;5.398;2022-10-16T11:56:41;6.60;;;0.70;;
71975;SDS011;60680;52.182;5.398;2022-10-16T11:59:18;5.57;;;0.57;;
71975;SDS011;60680;52.182;5.398;2022-10-16T12:04:45;5.45;;;0.60;;
71975;SDS011;60680;52.182;5.398;2022-10-16T12:07:24;6.15;;;0.70;;
71975;SDS011;60680;52.182;5.398;2022-10-16T12:09:53;5.43;;;0.67;;
71975;SDS011;60680;52.182;5.398;2022-10-16T12:12:25;4.93;;;0.70;;
71975;SDS011;60680;52.182;5.398;2022-10-16T12:18:07;3.63;;;0.70;;
71975;SDS011;60680;52.182;5.398;2022-10-16T12:20:54;2.85;;;0.57;;
71975;SDS011;60680;52.182;5.398;2022-10-16T12:23:26;3.73;;;0.80;;
71975;SDS011;60680;52.182;5.398;2022-10-16T12:25:56;7.22;;;0.93;;
71975;SDS011;60680;52.182;5.398;2022-10-16T12:28:31;6.70;;;0.85;;
71975;SDS011;60680;52.182;5.398;2022-10-16T12:31:03;3.00;;;0.88;;
71975;SDS011;60680;52.182;5.398;2022-10-16T12:33:33;5.97;;;0.60;;
71975;SDS011;60680;52.182;5.398;2022-10-16T12:36:00;4.57;;;0.70;;
71975;SDS011;60680;52.182;5.398;2022-10-16T12:38:36;5.05;;;0.55;;
71975;SDS011;60680;52.182;5.398;2022-10-16T12:41:11;3.67;;;0.60;;
71975;SDS011;60680;52.182;5.398;2022-10-16T12:43:41;4.10;;;0.60;;
71975;SDS011;60680;52.182;5.398;2022-10-16T12:48:41;7.67;;;0.80;;
71975;SDS011;60680;52.182;5.398;2022-10-16T12:54:04;6.22;;;0.50;;
71975;SDS011;60680;52.182;5.398;2022-10-16T12:59:18;7.35;;;0.70;;
71975;SDS011;60680;52.182;5.398;2022-10-16T13:10:26;3.90;;;0.57;;
71975;SDS011;60680;52.182;5.398;2022-10-16T13:21:46;4.40;;;0.40;;
71975;SDS011;60680;52.182;5.398;2022-10-16T13:27:07;4.75;;;0.30;;
71975;SDS011;60680;52.182;5.398;2022-10-16T13:29:44;7.80;;;0.97;;
71975;SDS011;60680;52.182;5.398;2022-10-16T13:32:18;3.08;;;0.40;;
71975;SDS011;60680;52.182;5.398;2022-10-16T13:34:46;3.75;;;0.40;;
71975;SDS011;60680;52.182;5.398;2022-10-16T13:37:21;4.15;;;0.40;;
71975;SDS011;60680;52.182;5.398;2022-10-16T13:39:49;2.95;;;0.30;;
71975;SDS011;60680;52.182;5.398;2022-10-16T13:44:54;5.00;;;0.70;;
71975;SDS011;60680;52.182;5.398;2022-10-16T13:50:04;4.43;;;0.47;;
71975;SDS011;60680;52.182;5.398;2022-10-16T13:52:32;4.32;;;0.55;;
71975;SDS011;60680;52.182;5.398;2022-10-16T13:54:58;6.07;;;0.60;;
71975;SDS011;60680;52.182;5.398;2022-10-16T13:57:27;6.93;;;0.57;;
71975;SDS011;60680;52.182;5.398;2022-10-16T13:59:54;4.75;;;0.45;;
71975;SDS011;60680;52.182;5.398;2022-10-16T14:05:02;4.90;;;0.50;;
71975;SDS011;60680;52.182;5.398;2022-10-16T14:07:31;5.53;;;0.40;;
71975;SDS011;60680;52.182;5.398;2022-10-16T14:10:22;4.57;;;0.57;;
71975;SDS011;60680;52.182;5.398;2022-10-16T14:13:02;6.30;;;0.65;;
71975;SDS011;60680;52.182;5.398;2022-10-16T14:15:31;4.28;;;0.50;;
71975;SDS011;60680;52.182;5.398;2022-10-16T14:17:59;7.68;;;1.00;;
71975;SDS011;60680;52.182;5.398;2022-10-16T14:20:27;4.13;;;0.80;;
71975;SDS011;60680;52.182;5.398;2022-10-16T14:23:04;2.47;;;0.52;;
71975;SDS011;60680;52.182;5.398;2022-10-16T14:25:45;4.70;;;0.32;;
71975;SDS011;60680;52.182;5.398;2022-10-16T14:28:17;4.93;;;0.60;;
71975;SDS011;60680;52.182;5.398;2022-10-16T14:36:02;6.90;;;0.95;;
71975;SDS011;60680;52.182;5.398;2022-10-16T14:38:31;6.07;;;0.40;;
71975;SDS011;60680;52.182;5.398;2022-10-16T14:40:59;4.80;;;0.43;;
71975;SDS011;60680;52.182;5.398;2022-10-16T14:43:35;5.15;;;1.02;;
71975;SDS011;60680;52.182;5.398;2022-10-16T14:46:05;3.27;;;0.20;;
71975;SDS011;60680;52.182;5.398;2022-10-16T14:48:42;6.60;;;0.40;;
71975;SDS011;60680;52.182;5.398;2022-10-16T14:51:18;5.30;;;0.45;;
71975;SDS011;60680;52.182;5.398;2022-10-16T14:53:46;6.82;;;0.80;;
71975;SDS011;60680;52.182;5.398;2022-10-16T14:56:17;6.72;;;0.50;;
71975;SDS011;60680;52.182;5.398;2022-10-16T14:58:45;2.37;;;0.40;;
71975;SDS011;60680;52.182;5.398;2022-10-16T15:01:12;5.53;;;0.40;;
71975;SDS011;60680;52.182;5.398;2022-10-16T15:03:38;4.57;;;0.77;;
71975;SDS011;60680;52.182;5.398;2022-10-16T15:06:09;9.55;;;0.60;;
71975;SDS011;60680;52.182;5.398;2022-10-16T15:08:38;4.13;;;0.80;;
71975;SDS011;60680;52.182;5.398;2022-10-16T15:11:04;6.60;;;0.73;;
71975;SDS011;60680;52.182;5.398;2022-10-16T15:13:36;4.30;;;0.52;;
71975;SDS011;60680;52.182;5.398;2022-10-16T15:16:02;4.40;;;0.40;;
71975;SDS011;60680;52.182;5.398;2022-10-16T15:18:28;5.00;;;0.70;;
71975;SDS011;60680;52.182;5.398;2022-10-16T15:20:55;6.25;;;0.60;;
71975;SDS011;60680;52.182;5.398;2022-10-16T15:23:21;5.17;;;0.87;;
71975;SDS011;60680;52.182;5.398;2022-10-16T15:28:19;4.57;;;1.00;;
71975;SDS011;60680;52.182;5.398;2022-10-16T15:30:48;7.80;;;1.20;;
71975;SDS011;60680;52.182;5.398;2022-10-16T15:33:20;7.10;;;0.80;;
71975;SDS011;60680;52.182;5.398;2022-10-16T15:36:05;5.47;;;0.60;;
71975;SDS011;60680;52.182;5.398;2022-10-16T15:38:31;7.43;;;0.80;;
71975;SDS011;60680;52.182;5.398;2022-10-16T15:40:58;4.50;;;0.80;;
71975;SDS011;60680;52.182;5.398;2022-10-16T15:43:24;3.60;;;0.60;;
71975;SDS011;60680;52.182;5.398;2022-10-16T15:46:10;6.90;;;0.90;;
71975;SDS011;60680;52.182;5.398;2022-10-16T15:48:40;8.40;;;1.13;;
71975;SDS011;60680;52.182;5.398;2022-10-16T15:51:07;3.88;;;0.68;;
71975;SDS011;60680;52.182;5.398;2022-10-16T15:53:34;5.65;;;0.57;;
71975;SDS011;60680;52.182;5.398;2022-10-16T15:56:02;4.20;;;0.60;;
71975;SDS011;60680;52.182;5.398;2022-10-16T15:58:32;6.40;;;0.88;;
71975;SDS011;60680;52.182;5.398;2022-10-16T16:00:59;5.07;;;0.80;;
71975;SDS011;60680;52.182;5.398;2022-10-16T16:03:27;6.13;;;0.70;;
71975;SDS011;60680;52.182;5.398;2022-10-16T16:05:54;3.22;;;0.80;;
71975;SDS011;60680;52.182;5.398;2022-10-16T16:08:21;7.90;;;1.10;;
71975;SDS011;60680;52.182;5.398;2022-10-16T16:13:34;10.37;;;2.53;;
71975;SDS011;60680;52.182;5.398;2022-10-16T16:16:00;26.52;;;7.80;;
71975;SDS011;60680;52.182;5.398;2022-10-16T16:18:27;20.15;;;6.85;;
71975;SDS011;60680;52.182;5.398;2022-10-16T16:20:54;7.50;;;2.40;;
71975;SDS011;60680;52.182;5.398;2022-10-16T16:26:07;5.63;;;1.73;;
71975;SDS011;60680;52.182;5.398;2022-10-16T16:28:39;6.13;;;1.65;;
71975;SDS011;60680;52.182;5.398;2022-10-16T16:31:07;6.43;;;1.35;;
71975;SDS011;60680;52.182;5.398;2022-10-16T16:33:34;8.60;;;1.48;;
71975;SDS011;60680;52.182;5.398;2022-10-16T16:36:01;6.93;;;1.85;;
71975;SDS011;60680;52.182;5.398;2022-10-16T16:38:29;10.03;;;1.80;;
71975;SDS011;60680;52.182;5.398;2022-10-16T16:40:58;5.88;;;1.35;;
71975;SDS011;60680;52.182;5.398;2022-10-16T16:43:27;6.45;;;1.60;;
71975;SDS011;60680;52.182;5.398;2022-10-16T16:45:53;6.15;;;1.05;;
71975;SDS011;60680;52.182;5.398;2022-10-16T16:48:20;4.65;;;1.20;;
71975;SDS011;60680;52.182;5.398;2022-10-16T16:50:47;4.50;;;0.93;;
71975;SDS011;60680;52.182;5.398;2022-10-16T16:53:14;5.30;;;1.00;;
71975;SDS011;60680;52.182;5.398;2022-10-16T16:55:40;5.55;;;1.30;;
71975;SDS011;60680;52.182;5.398;2022-10-16T16:58:06;6.25;;;1.30;;
71975;SDS011;60680;52.182;5.398;2022-10-16T17:00:33;3.88;;;0.82;;
71975;SDS011;60680;52.182;5.398;2022-10-16T17:02:59;5.20;;;1.00;;
71975;SDS011;60680;52.182;5.398;2022-10-16T17:05:28;6.47;;;1.00;;
71975;SDS011;60680;52.182;5.398;2022-10-16T17:07:54;7.05;;;1.85;;
71975;SDS011;60680;52.182;5.398;2022-10-16T17:10:21;4.78;;;1.00;;
71975;SDS011;60680;52.182;5.398;2022-10-16T17:12:47;7.45;;;1.40;;
71975;SDS011;60680;52.182;5.398;2022-10-16T17:15:13;8.83;;;1.27;;
71975;SDS011;60680;52.182;5.398;2022-10-16T17:17:40;3.58;;;0.98;;
71975;SDS011;60680;52.182;5.398;2022-10-16T17:20:06;6.10;;;1.20;;
71975;SDS011;60680;52.182;5.398;2022-10-16T17:22:34;5.70;;;1.50;;